Nearby METAR Reports

 

EGQS - Lossiemouth Raf, United Kingdom
Distance from station: NW 60mi, 97km
Updated: 28/05/2020 19:50
Partly cloudy
Partly cloudy
 Wind from E
Wind: E 12 mph , 19 km/h
Temperature: 13°C
Dew Point: 11°C
Humidity: 88%
Barometer: 1030 hPa
Clouds: Partly cloudy
Visibility: 6 miles , 10 km
Cloud details: Few Clouds 1280 m
Partly cloudy 6706 m
2020/05/28 18:50 EGQS 281850Z 08010KT 9999 FEW042 SCT220 13/11 Q1030 RMK BLU